createdAt,value
2019-04-01T00:00:12.213Z,1020.77
2019-04-01T00:01:13.598Z,1020.76
2019-04-01T00:02:14.983Z,1020.78
2019-04-01T00:03:16.364Z,1020.79
2019-04-01T00:04:17.740Z,1020.80
2019-04-01T00:05:19.123Z,1020.76
2019-04-01T00:06:20.506Z,1020.79
2019-04-01T00:07:21.885Z,1020.78
2019-04-01T00:08:23.258Z,1020.77
2019-04-01T00:09:24.638Z,1020.77
2019-04-01T00:10:26.025Z,1020.77
2019-04-01T00:11:27.419Z,1020.78
2019-04-01T00:12:28.800Z,1020.80
2019-04-01T00:13:30.185Z,1020.85
2019-04-01T00:14:31.569Z,1020.78
2019-04-01T00:15:32.953Z,1020.80
2019-04-01T00:16:34.332Z,1020.82
2019-04-01T00:17:35.712Z,1020.81
2019-04-01T00:18:37.098Z,1020.76
2019-04-01T00:19:38.490Z,1020.82
2019-04-01T00:20:39.893Z,1020.82
2019-04-01T00:21:44.352Z,1020.85
2019-04-01T00:22:42.630Z,1020.86
2019-04-01T00:23:44.557Z,1020.90
2019-04-01T00:24:45.935Z,1020.91
2019-04-01T00:25:47.324Z,1020.91
2019-04-01T00:26:48.665Z,1020.90
2019-04-01T00:27:50.072Z,1020.91
2019-04-01T00:28:51.455Z,1020.90
2019-04-01T00:29:52.842Z,1020.89
2019-04-01T00:30:54.214Z,1020.89
2019-04-01T00:31:55.588Z,1020.89
2019-04-01T00:32:56.972Z,1020.89
2019-04-01T00:33:58.360Z,1020.93
2019-04-01T00:34:59.742Z,1020.88
2019-04-01T00:36:01.125Z,1020.94
2019-04-01T00:37:02.520Z,1020.84
2019-04-01T00:38:03.897Z,1020.85
2019-04-01T00:39:05.279Z,1020.81
2019-04-01T00:40:06.671Z,1020.87
2019-04-01T00:41:08.053Z,1020.85
2019-04-01T00:42:09.437Z,1020.78
2019-04-01T00:43:10.817Z,1020.85
2019-04-01T00:44:12.199Z,1020.86
2019-04-01T00:45:13.592Z,1020.85
2019-04-01T00:46:14.971Z,1020.85
2019-04-01T00:47:16.357Z,1020.90
2019-04-01T00:48:17.749Z,1020.86
2019-04-01T00:49:19.129Z,1020.84
2019-04-01T00:50:20.507Z,1020.85
2019-04-01T00:51:21.892Z,1020.86
2019-04-01T00:52:23.267Z,1020.84
2019-04-01T00:53:24.656Z,1020.84
2019-04-01T00:54:26.040Z,1020.81
2019-04-01T00:55:27.424Z,1020.84
2019-04-01T00:56:28.800Z,1020.85
2019-04-01T00:57:30.178Z,1020.90
2019-04-01T00:58:31.558Z,1020.88
2019-04-01T00:59:32.955Z,1020.84
2019-04-01T01:00:34.333Z,1020.79
2019-04-01T01:01:35.716Z,1020.80
2019-04-01T01:02:37.098Z,1020.86
2019-04-01T01:03:38.480Z,1020.81
2019-04-01T01:04:39.871Z,1020.80
2019-04-01T01:05:41.252Z,1020.80
2019-04-01T01:06:42.626Z,1020.81
2019-04-01T01:07:44.007Z,1020.86
2019-04-01T01:08:45.385Z,1020.85
2019-04-01T01:09:46.777Z,1020.88
2019-04-01T01:10:48.157Z,1020.85
2019-04-01T01:11:49.543Z,1020.85
2019-04-01T01:12:50.923Z,1020.85
2019-04-01T01:13:52.311Z,1020.85
2019-04-01T01:14:53.693Z,1020.87
2019-04-01T01:15:55.069Z,1020.81
2019-04-01T01:16:56.449Z,1020.82
2019-04-01T01:17:57.841Z,1020.85
2019-04-01T01:18:59.218Z,1020.86
2019-04-01T01:20:00.594Z,1020.88
2019-04-01T01:21:01.980Z,1020.89
2019-04-01T01:22:03.359Z,1020.89
2019-04-01T01:23:04.741Z,1020.90
2019-04-01T01:24:06.137Z,1020.89
2019-04-01T01:25:07.506Z,1020.88
2019-04-01T01:26:08.886Z,1020.90
2019-04-01T01:27:10.278Z,1020.87
2019-04-01T01:28:11.658Z,1020.81
2019-04-01T01:29:13.045Z,1020.85
2019-04-01T01:30:14.422Z,1020.84
2019-04-01T01:31:15.802Z,1020.82
2019-04-01T01:32:17.140Z,1020.90
2019-04-01T01:33:18.524Z,1020.91
2019-04-01T01:34:19.898Z,1020.90
2019-04-01T01:35:21.287Z,1020.92
2019-04-01T01:36:22.669Z,1020.89
2019-04-01T01:37:24.055Z,1020.92
2019-04-01T01:38:25.437Z,1020.92
2019-04-01T01:39:26.820Z,1020.88
2019-04-01T01:40:28.197Z,1020.85
2019-04-01T01:41:29.581Z,1020.85
2019-04-01T01:42:30.961Z,1020.88
2019-04-01T01:43:32.341Z,1020.81
2019-04-01T01:44:33.726Z,1020.83
2019-04-01T01:45:35.107Z,1020.84
2019-04-01T01:46:36.495Z,1020.83
2019-04-01T01:47:37.882Z,1020.87
2019-04-01T01:48:39.253Z,1020.89
2019-04-01T01:49:40.635Z,1020.92
2019-04-01T01:50:42.020Z,1020.89
2019-04-01T01:51:43.412Z,1020.87
2019-04-01T01:52:44.792Z,1020.86
2019-04-01T01:53:46.182Z,1020.87
2019-04-01T01:54:47.567Z,1020.89
2019-04-01T01:55:48.946Z,1020.83
2019-04-01T01:56:50.336Z,1020.83
2019-04-01T01:57:51.716Z,1020.87
2019-04-01T01:58:53.102Z,1020.84
2019-04-01T01:59:54.486Z,1020.88
2019-04-01T02:00:55.820Z,1020.85
2019-04-01T02:01:57.211Z,1020.84
2019-04-01T02:02:58.594Z,1020.84
2019-04-01T02:03:59.968Z,1020.81
2019-04-01T02:05:01.347Z,1020.82
2019-04-01T02:06:02.735Z,1020.87
2019-04-01T02:07:04.109Z,1020.85
2019-04-01T02:08:05.489Z,1020.90
2019-04-01T02:09:06.867Z,1020.85
2019-04-01T02:10:08.269Z,1020.85
2019-04-01T02:11:09.635Z,1020.83
2019-04-01T02:12:11.019Z,1020.81
2019-04-01T02:13:12.407Z,1020.82
2019-04-01T02:14:13.751Z,1020.81
2019-04-01T02:15:15.129Z,1020.82
2019-04-01T02:16:16.509Z,1020.79
2019-04-01T02:17:17.900Z,1020.82
2019-04-01T02:18:19.279Z,1020.78
2019-04-01T02:19:20.674Z,1020.78
2019-04-01T02:20:22.054Z,1020.83
2019-04-01T02:21:23.426Z,1020.88
2019-04-01T02:22:24.804Z,1020.89
2019-04-01T02:23:26.187Z,1020.88
2019-04-01T02:24:27.576Z,1020.88
2019-04-01T02:25:28.961Z,1020.86
2019-04-01T02:26:30.344Z,1020.90
2019-04-01T02:27:31.738Z,1020.90
2019-04-01T02:28:33.118Z,1020.86
2019-04-01T02:29:34.499Z,1020.91
2019-04-01T02:30:35.885Z,1020.90
2019-04-01T02:31:37.261Z,1020.89
2019-04-01T02:32:38.639Z,1020.87
2019-04-01T02:33:40.023Z,1020.88
2019-04-01T02:34:41.406Z,1020.89
2019-04-01T02:35:43.572Z,1020.88
2019-04-01T02:36:44.966Z,1020.85
2019-04-01T02:37:46.339Z,1020.87
2019-04-01T02:38:47.724Z,1020.89
2019-04-01T02:39:49.097Z,1020.84
2019-04-01T02:40:50.486Z,1020.87
2019-04-01T02:41:51.879Z,1020.87
2019-04-01T02:42:53.254Z,1020.87
2019-04-01T02:43:54.636Z,1020.91
2019-04-01T02:44:56.021Z,1020.86
2019-04-01T02:45:57.399Z,1020.93
2019-04-01T02:46:58.742Z,1020.94
2019-04-01T02:48:00.127Z,1020.88
2019-04-01T02:49:01.517Z,1020.89
2019-04-01T02:50:02.941Z,1020.90
2019-04-01T02:51:04.294Z,1020.91
2019-04-01T02:52:05.675Z,1020.93
2019-04-01T02:53:07.057Z,1020.94
2019-04-01T02:54:08.438Z,1020.99
2019-04-01T02:55:09.827Z,1021.01
2019-04-01T02:56:11.216Z,1020.95
2019-04-01T02:57:12.594Z,1020.92
2019-04-01T02:58:13.973Z,1020.99
2019-04-01T02:59:15.366Z,1020.99
2019-04-01T03:00:16.743Z,1020.97
2019-04-01T03:01:18.125Z,1020.95
2019-04-01T03:02:19.512Z,1020.98
2019-04-01T03:03:20.890Z,1020.97
2019-04-01T03:04:22.726Z,1020.98
2019-04-01T03:05:24.104Z,1020.96
2019-04-01T03:06:25.483Z,1021.00
2019-04-01T03:07:26.865Z,1021.02
2019-04-01T03:08:28.242Z,1021.02
2019-04-01T03:09:29.639Z,1021.03
2019-04-01T03:10:31.027Z,1021.04
2019-04-01T03:11:32.412Z,1021.03
2019-04-01T03:12:33.918Z,1021.04
2019-04-01T03:13:35.153Z,1021.05
2019-04-01T03:14:36.528Z,1021.04
2019-04-01T03:15:37.915Z,1021.07
2019-04-01T03:16:39.299Z,1021.09
2019-04-01T03:17:40.687Z,1021.14
2019-04-01T03:18:43.034Z,1021.14
2019-04-01T03:19:43.407Z,1021.17
2019-04-01T03:20:44.801Z,1021.14
2019-04-01T03:21:46.181Z,1021.14
2019-04-01T03:22:47.566Z,1021.14
2019-04-01T03:23:48.953Z,1021.16
2019-04-01T03:24:50.346Z,1021.21
2019-04-01T03:25:51.728Z,1021.18
2019-04-01T03:26:53.119Z,1021.14
2019-04-01T03:27:54.503Z,1021.17
2019-04-01T03:28:55.895Z,1021.18
2019-04-01T03:29:57.278Z,1021.14
2019-04-01T03:30:58.680Z,1021.16
2019-04-01T03:32:00.084Z,1021.18
2019-04-01T03:33:01.448Z,1021.21
2019-04-01T03:34:02.850Z,1021.20
2019-04-01T03:35:04.262Z,1021.22
2019-04-01T03:36:05.617Z,1021.19
2019-04-01T03:37:07.016Z,1021.19
2019-04-01T03:38:08.408Z,1021.15
2019-04-01T03:39:09.795Z,1021.19
2019-04-01T03:40:11.135Z,1021.17
2019-04-01T03:41:12.527Z,1021.17
2019-04-01T03:42:13.908Z,1021.19
2019-04-01T03:43:15.290Z,1021.18
2019-04-01T03:44:16.683Z,1021.20
2019-04-01T03:45:18.065Z,1021.19
2019-04-01T03:46:19.455Z,1021.20
2019-04-01T03:47:20.834Z,1021.21
2019-04-01T03:48:22.216Z,1021.26
2019-04-01T03:49:23.605Z,1021.23
2019-04-01T03:50:25.000Z,1021.27
2019-04-01T03:51:26.374Z,1021.26
2019-04-01T03:52:27.764Z,1021.22
2019-04-01T03:53:29.153Z,1021.21
2019-04-01T03:54:30.537Z,1021.22
2019-04-01T03:55:31.930Z,1021.23
2019-04-01T03:56:33.321Z,1021.20
2019-04-01T03:57:34.708Z,1021.18
2019-04-01T03:58:36.094Z,1021.21
2019-04-01T03:59:37.481Z,1021.26
2019-04-01T04:00:38.866Z,1021.26
2019-04-01T04:01:40.268Z,1021.26
2019-04-01T04:02:41.641Z,1021.27
2019-04-01T04:03:43.019Z,1021.28
2019-04-01T04:04:44.408Z,1021.26
2019-04-01T04:05:45.753Z,1021.29
2019-04-01T04:06:47.146Z,1021.30
2019-04-01T04:07:48.538Z,1021.27
2019-04-01T04:08:49.927Z,1021.25
2019-04-01T04:09:51.314Z,1021.26
2019-04-01T04:10:52.699Z,1021.24
2019-04-01T04:11:54.099Z,1021.25
2019-04-01T04:12:55.487Z,1021.26
2019-04-01T04:13:56.871Z,1021.26
2019-04-01T04:14:58.252Z,1021.30
2019-04-01T04:15:59.635Z,1021.27
2019-04-01T04:17:01.013Z,1021.28
2019-04-01T04:18:02.406Z,1021.29
2019-04-01T04:19:03.783Z,1021.28
2019-04-01T04:20:05.173Z,1021.26
2019-04-01T04:21:06.560Z,1021.30
2019-04-01T04:22:07.952Z,1021.31
2019-04-01T04:23:09.337Z,1021.29
2019-04-01T04:24:10.736Z,1021.29
2019-04-01T04:25:12.907Z,1021.31
2019-04-01T04:26:14.300Z,1021.33
2019-04-01T04:27:15.685Z,1021.32
2019-04-01T04:28:17.101Z,1021.40
2019-04-01T04:29:18.493Z,1021.37
2019-04-01T04:30:19.878Z,1021.42
2019-04-01T04:31:21.267Z,1021.43
2019-04-01T04:32:22.653Z,1021.41
2019-04-01T04:33:24.044Z,1021.42
2019-04-01T04:34:25.437Z,1021.39
2019-04-01T04:35:26.836Z,1021.36
2019-04-01T04:36:28.221Z,1021.38
2019-04-01T04:37:29.614Z,1021.39
2019-04-01T04:38:30.999Z,1021.43
2019-04-01T04:39:32.400Z,1021.41
2019-04-01T04:40:33.781Z,1021.41
2019-04-01T04:41:35.166Z,1021.44
2019-04-01T04:42:36.582Z,1021.41
2019-04-01T04:43:37.962Z,1021.46
2019-04-01T04:44:39.368Z,1021.45
2019-04-01T04:45:40.768Z,1021.48
2019-04-01T04:46:42.254Z,1021.51
2019-04-01T04:47:43.514Z,1021.48
2019-04-01T04:48:44.903Z,1021.48
2019-04-01T04:49:46.296Z,1021.52
2019-04-01T04:50:47.693Z,1021.51
2019-04-01T04:51:49.075Z,1021.52
2019-04-01T04:52:50.469Z,1021.52
2019-04-01T04:53:51.851Z,1021.53
2019-04-01T04:54:53.251Z,1021.55
2019-04-01T04:55:54.669Z,1021.59
2019-04-01T04:56:56.041Z,1021.58
2019-04-01T04:57:57.439Z,1021.66
2019-04-01T04:58:58.833Z,1021.58
2019-04-01T05:00:00.341Z,1021.61
2019-04-01T05:01:01.571Z,1021.62
2019-04-01T05:02:02.965Z,1021.57
2019-04-01T05:03:04.358Z,1021.59
2019-04-01T05:04:05.769Z,1021.61
2019-04-01T05:05:07.160Z,1021.60
2019-04-01T05:06:08.551Z,1021.66
2019-04-01T05:07:09.929Z,1021.66
2019-04-01T05:08:11.316Z,1021.68
2019-04-01T05:09:12.706Z,1021.67
2019-04-01T05:10:14.125Z,1021.65
2019-04-01T05:11:15.532Z,1021.68
2019-04-01T05:12:16.918Z,1021.73
2019-04-01T05:13:18.304Z,1021.72
2019-04-01T05:14:19.692Z,1021.75
2019-04-01T05:15:21.082Z,1021.78
2019-04-01T05:16:22.498Z,1021.80
2019-04-01T05:17:23.888Z,1021.78
2019-04-01T05:18:25.280Z,1021.78
2019-04-01T05:19:26.699Z,1021.81
2019-04-01T05:20:28.104Z,1021.79
2019-04-01T05:21:29.504Z,1021.81
2019-04-01T05:22:30.892Z,1021.80
2019-04-01T05:23:32.274Z,1021.85
2019-04-01T05:24:33.674Z,1021.85
2019-04-01T05:25:35.075Z,1021.83
2019-04-01T05:26:36.516Z,1021.84
2019-04-01T05:27:37.905Z,1021.87
2019-04-01T05:28:39.299Z,1021.83
2019-04-01T05:29:40.696Z,1021.85
2019-04-01T05:30:42.087Z,1021.87
2019-04-01T05:31:43.493Z,1021.87
2019-04-01T05:32:44.898Z,1021.89
2019-04-01T05:33:55.221Z,1021.87
2019-04-01T05:34:47.631Z,1021.86
2019-04-01T05:35:49.017Z,1021.92
2019-04-01T05:36:50.471Z,1021.90
2019-04-01T05:37:51.752Z,1021.96
2019-04-01T05:38:53.141Z,1021.96
2019-04-01T05:39:54.523Z,1022.01
2019-04-01T05:40:55.902Z,1022.02
2019-04-01T05:41:57.292Z,1021.95
2019-04-01T05:42:58.683Z,1022.00
2019-04-01T05:44:02.257Z,1022.00
2019-04-01T05:45:01.409Z,1021.96
2019-04-01T05:46:02.794Z,1021.98
2019-04-01T05:47:04.187Z,1021.96
2019-04-01T05:48:05.564Z,1021.97
2019-04-01T05:49:06.948Z,1022.01
2019-04-01T05:50:08.330Z,1022.03
2019-04-01T05:51:09.720Z,1022.03
2019-04-01T05:52:11.769Z,1022.01
2019-04-01T05:53:13.146Z,1022.02
2019-04-01T05:54:14.541Z,1022.04
2019-04-01T05:55:15.922Z,1022.06
2019-04-01T05:56:17.423Z,1022.08
2019-04-01T05:57:18.833Z,1022.10
2019-04-01T05:58:20.227Z,1022.10
2019-04-01T05:59:21.624Z,1022.08
2019-04-01T06:00:23.004Z,1022.13
2019-04-01T06:01:24.393Z,1022.15
2019-04-01T06:02:25.785Z,1022.12
2019-04-01T06:03:27.176Z,1022.17
2019-04-01T06:04:28.556Z,1022.15
2019-04-01T06:05:29.945Z,1022.15
2019-04-01T06:06:31.333Z,1022.18
2019-04-01T06:07:32.724Z,1022.13
2019-04-01T06:08:34.105Z,1022.13
2019-04-01T06:09:35.454Z,1022.11
2019-04-01T06:10:36.835Z,1022.18
2019-04-01T06:11:38.222Z,1022.17
2019-04-01T06:12:39.612Z,1022.17
2019-04-01T06:13:41.000Z,1022.16
2019-04-01T06:14:42.390Z,1022.16
2019-04-01T06:15:43.774Z,1022.22
2019-04-01T06:16:45.163Z,1022.23
2019-04-01T06:17:46.552Z,1022.19
2019-04-01T06:18:47.944Z,1022.22
2019-04-01T06:19:49.330Z,1022.23
2019-04-01T06:20:50.716Z,1022.55
2019-04-01T06:21:52.102Z,1022.96
2019-04-01T06:22:53.496Z,1022.95
2019-04-01T06:23:54.883Z,1022.80
2019-04-01T06:24:56.266Z,1023.03
2019-04-01T06:25:57.653Z,1023.39
2019-04-01T06:26:59.042Z,1023.68
2019-04-01T06:28:00.440Z,1023.63
2019-04-01T06:29:01.824Z,1023.82
2019-04-01T06:30:03.217Z,1023.77
2019-04-01T06:31:04.607Z,1023.44
2019-04-01T06:32:05.996Z,1023.19
2019-04-01T06:33:07.390Z,1022.73
2019-04-01T06:34:09.435Z,1022.36
2019-04-01T06:35:10.891Z,1022.37
2019-04-01T06:36:12.269Z,1022.36
2019-04-01T06:37:13.668Z,1022.41
2019-04-01T06:38:15.073Z,1022.43
2019-04-01T06:39:16.451Z,1022.45
2019-04-01T06:40:17.845Z,1022.53
2019-04-01T06:41:19.235Z,1022.58
2019-04-01T06:42:20.638Z,1022.61
2019-04-01T06:43:22.034Z,1022.59
2019-04-01T06:44:23.441Z,1022.63
2019-04-01T06:45:24.870Z,1022.67
2019-04-01T06:46:26.266Z,1022.66
2019-04-01T06:47:27.662Z,1022.70
2019-04-01T06:48:29.052Z,1022.83
2019-04-01T06:49:30.450Z,1022.90
2019-04-01T06:50:31.860Z,1022.91
2019-04-01T06:51:33.258Z,1023.08
2019-04-01T06:52:34.661Z,1023.25
2019-04-01T06:53:36.119Z,1023.24
2019-04-01T06:54:37.520Z,1023.05
2019-04-01T06:55:38.944Z,1023.02
2019-04-01T06:56:40.343Z,1023.03
2019-04-01T06:57:41.740Z,1023.06
2019-04-01T06:58:43.157Z,1023.07
2019-04-01T06:59:44.565Z,1023.22
2019-04-01T07:00:45.984Z,1023.75
2019-04-01T07:01:47.395Z,1024.24
2019-04-01T07:02:48.799Z,1024.31
2019-04-01T07:03:50.200Z,1023.94
2019-04-01T07:04:51.601Z,1023.30
2019-04-01T07:05:53.002Z,1023.14
2019-04-01T07:06:54.415Z,1023.13
2019-04-01T07:07:55.816Z,1023.15
2019-04-01T07:08:57.231Z,1023.15
2019-04-01T07:09:58.717Z,1023.15
2019-04-01T07:11:00.196Z,1023.12
2019-04-01T07:12:01.488Z,1023.20
2019-04-01T07:13:02.898Z,1023.30
2019-04-01T07:14:04.307Z,1023.53
2019-04-01T07:15:05.752Z,1024.63
2019-04-01T07:16:15.424Z,1025.56
2019-04-01T07:17:08.533Z,1025.14
2019-04-01T07:18:09.932Z,1024.00
2019-04-01T07:19:11.341Z,1023.50
2019-04-01T07:20:12.749Z,1023.41
2019-04-01T07:21:14.176Z,1023.40
2019-04-01T07:22:15.597Z,1023.46
2019-04-01T07:23:17.019Z,1023.49
2019-04-01T07:24:18.439Z,1023.61
2019-04-01T07:25:19.857Z,1024.40
2019-04-01T07:26:21.269Z,1026.38
2019-04-01T07:27:22.710Z,1028.76
2019-04-01T07:28:24.130Z,1030.46
2019-04-01T07:29:25.525Z,1030.39
2019-04-01T07:30:26.931Z,1029.90
2019-04-01T07:31:28.337Z,1027.75
2019-04-01T07:32:29.803Z,1024.70
2019-04-01T07:33:31.159Z,1023.75
2019-04-01T07:34:32.565Z,1023.70
2019-04-01T07:35:33.975Z,1023.70
2019-04-01T07:36:35.386Z,1023.73
2019-04-01T07:37:36.806Z,1023.76
2019-04-01T07:38:38.208Z,1023.83
2019-04-01T07:39:39.620Z,1024.84
2019-04-01T07:40:41.035Z,1029.12
2019-04-01T07:41:42.449Z,1031.59
2019-04-01T07:42:43.855Z,1031.49
2019-04-01T07:43:45.268Z,1029.33
2019-04-01T07:44:46.685Z,1030.77
2019-04-01T07:45:48.098Z,1027.44
2019-04-01T07:46:49.599Z,1024.37
2019-04-01T07:47:51.786Z,1024.13
2019-04-01T07:48:52.251Z,1024.65
2019-04-01T07:49:53.620Z,1028.26
2019-04-01T07:50:55.027Z,1031.10
2019-04-01T07:51:56.433Z,1030.74
2019-04-01T07:52:57.848Z,1030.92
2019-04-01T07:53:59.251Z,1030.78
2019-04-01T07:55:00.662Z,1030.62
2019-04-01T07:56:02.709Z,1030.95
2019-04-01T07:57:03.458Z,1030.52
2019-04-01T07:58:04.873Z,1030.65
2019-04-01T07:59:06.278Z,1030.64
2019-04-01T08:00:07.919Z,1030.40
2019-04-01T08:01:09.338Z,1025.74
2019-04-01T08:02:10.746Z,1023.45
2019-04-01T08:03:12.155Z,1023.53
2019-04-01T08:04:13.572Z,1023.55
2019-04-01T08:05:14.979Z,1023.68
2019-04-01T08:06:16.389Z,1023.62
2019-04-01T08:07:17.800Z,1024.78
2019-04-01T08:08:19.209Z,1027.20
2019-04-01T08:09:20.630Z,1027.12
2019-04-01T08:10:22.036Z,1023.64
2019-04-01T08:11:23.444Z,1023.80
2019-04-01T08:12:27.730Z,1023.16
2019-04-01T08:13:26.232Z,1023.69
2019-04-01T08:14:27.646Z,1023.31
2019-04-01T08:15:29.044Z,1023.45
2019-04-01T08:16:30.460Z,1023.10
2019-04-01T08:17:31.864Z,1023.08
2019-04-01T08:18:34.073Z,1023.08
2019-04-01T08:19:34.649Z,1023.42
2019-04-01T08:20:36.057Z,1023.05
2019-04-01T08:21:37.433Z,1023.02
2019-04-01T08:22:38.846Z,1023.07
2019-04-01T08:23:40.258Z,1023.06
2019-04-01T08:24:41.661Z,1023.08
2019-04-01T08:25:43.138Z,1023.05
2019-04-01T08:26:44.525Z,1023.04
2019-04-01T08:27:45.933Z,1022.96
2019-04-01T08:28:47.333Z,1027.83
2019-04-01T08:29:48.737Z,1022.96
2019-04-01T08:30:50.145Z,1023.25
2019-04-01T08:31:51.551Z,1022.99
2019-04-01T08:32:52.954Z,1023.46
2019-04-01T08:33:54.362Z,1022.96
2019-04-01T08:34:55.781Z,1024.57
2019-04-01T08:35:57.182Z,1024.12
2019-04-01T08:36:58.580Z,1023.50
2019-04-01T08:38:00.005Z,1022.96
2019-04-01T08:39:01.406Z,1022.98
2019-04-01T08:40:02.811Z,1023.14
2019-04-01T08:41:04.230Z,1022.94
2019-04-01T08:42:05.745Z,1023.00
2019-04-01T08:43:07.039Z,1022.92
2019-04-01T08:44:08.455Z,1023.10
2019-04-01T08:45:09.860Z,1022.92
2019-04-01T08:46:11.342Z,1022.96
2019-04-01T08:47:12.760Z,1023.00
2019-04-01T08:48:14.179Z,1023.15
2019-04-01T08:49:15.672Z,1023.31
2019-04-01T08:50:17.077Z,1023.41
2019-04-01T08:51:18.487Z,1024.57
2019-04-01T08:52:19.919Z,1025.62
2019-04-01T08:53:21.317Z,1025.65
2019-04-01T08:54:22.730Z,1025.43
2019-04-01T08:55:24.137Z,1025.55
2019-04-01T08:56:25.537Z,1025.63
2019-04-01T08:57:26.952Z,1025.86
2019-04-01T08:58:28.351Z,1026.49
2019-04-01T08:59:29.758Z,1027.21
2019-04-01T09:00:31.150Z,1027.39
2019-04-01T09:01:35.410Z,1027.36
2019-04-01T09:02:33.932Z,1026.89
2019-04-01T09:03:35.338Z,1026.83
2019-04-01T09:04:36.744Z,1026.82
2019-04-01T09:05:38.162Z,1026.82
2019-04-01T09:06:39.574Z,1026.86
2019-04-01T09:07:41.024Z,1027.07
2019-04-01T09:08:42.454Z,1027.50
2019-04-01T09:09:43.868Z,1027.73
2019-04-01T09:10:45.271Z,1027.69
2019-04-01T09:11:46.700Z,1027.75
2019-04-01T09:12:48.130Z,1027.07
2019-04-01T09:13:49.540Z,1026.46
2019-04-01T09:14:50.951Z,1025.85
2019-04-01T09:15:52.362Z,1025.50
2019-04-01T09:16:53.772Z,1025.38
2019-04-01T09:17:55.189Z,1025.21
2019-04-01T09:18:56.687Z,1025.12
2019-04-01T09:19:58.099Z,1025.06
2019-04-01T09:20:59.549Z,1025.22
2019-04-01T09:22:00.962Z,1025.26
2019-04-01T09:23:02.368Z,1025.15
2019-04-01T09:24:03.808Z,1025.20
2019-04-01T09:25:05.218Z,1025.12
2019-04-01T09:26:06.680Z,1025.09
2019-04-01T09:27:08.110Z,1025.17
2019-04-01T09:28:09.527Z,1025.21
2019-04-01T09:29:11.828Z,1025.25
2019-04-01T09:30:13.253Z,1025.32
2019-04-01T09:31:14.702Z,1025.16
2019-04-01T09:32:16.115Z,1025.40
2019-04-01T09:33:17.552Z,1025.50
2019-04-01T09:34:19.019Z,1025.14
2019-04-01T09:35:20.434Z,1024.83
2019-04-01T09:36:21.847Z,1025.07
2019-04-01T09:37:23.261Z,1025.37
2019-04-01T09:38:24.677Z,1025.60
2019-04-01T09:39:26.101Z,1025.58
2019-04-01T09:40:27.539Z,1025.33
2019-04-01T09:41:28.955Z,1025.38
2019-04-01T09:42:30.375Z,1025.60
2019-04-01T09:43:31.797Z,1025.60
2019-04-01T09:44:37.065Z,1025.55
2019-04-01T09:45:34.602Z,1025.64
2019-04-01T09:46:36.002Z,1025.85
2019-04-01T09:47:37.422Z,1025.95
2019-04-01T09:48:38.833Z,1025.89
2019-04-01T09:49:40.257Z,1026.10
2019-04-01T09:50:41.677Z,1026.12
2019-04-01T09:51:48.970Z,1026.07
2019-04-01T09:52:44.475Z,1026.08
2019-04-01T09:53:45.880Z,1026.21
2019-04-01T09:54:47.294Z,1026.38
2019-04-01T09:55:48.719Z,1026.47
2019-04-01T09:56:50.139Z,1026.61
2019-04-01T09:57:51.553Z,1026.86
2019-04-01T09:58:52.968Z,1027.12
2019-04-01T09:59:54.481Z,1027.65
2019-04-01T10:00:55.783Z,1027.40
2019-04-01T10:01:57.200Z,1026.53
2019-04-01T10:02:58.614Z,1026.57
2019-04-01T10:04:00.035Z,1026.54
2019-04-01T10:05:01.456Z,1026.58
2019-04-01T10:06:02.885Z,1026.06
2019-04-01T10:07:04.377Z,1025.56
2019-04-01T10:08:05.704Z,1025.20
2019-04-01T10:09:07.121Z,1025.11
2019-04-01T10:10:08.550Z,1025.19
2019-04-01T10:11:12.482Z,1025.06
2019-04-01T10:12:11.367Z,1024.77
2019-04-01T10:13:12.807Z,1024.67
2019-04-01T10:14:14.227Z,1024.66
2019-04-01T10:15:15.670Z,1024.59
2019-04-01T10:16:17.095Z,1024.41
2019-04-01T10:17:18.540Z,1024.20
2019-04-01T10:18:19.936Z,1024.16
2019-04-01T10:19:21.367Z,1024.12
2019-04-01T10:20:22.811Z,1023.88
2019-04-01T10:21:24.252Z,1023.77
2019-04-01T10:22:25.660Z,1023.71
2019-04-01T10:23:27.079Z,1023.45
2019-04-01T10:24:28.523Z,1023.37
2019-04-01T10:25:29.996Z,1023.32
2019-04-01T10:26:31.450Z,1023.26
2019-04-01T10:27:32.893Z,1023.29
2019-04-01T10:28:34.320Z,1023.21
2019-04-01T10:29:35.758Z,1023.20
2019-04-01T10:30:37.177Z,1023.05
2019-04-01T10:31:38.621Z,1022.67
2019-04-01T10:32:40.052Z,1022.45
2019-04-01T10:33:41.503Z,1022.26
2019-04-01T10:34:42.913Z,1022.12
2019-04-01T10:35:44.335Z,1022.08
2019-04-01T10:36:45.743Z,1022.09
2019-04-01T10:37:47.162Z,1022.06
2019-04-01T10:38:48.576Z,1022.07
2019-04-01T10:39:49.997Z,1022.06
2019-04-01T10:40:51.407Z,1022.01
2019-04-01T10:41:52.823Z,1021.99
2019-04-01T10:42:54.231Z,1021.93
2019-04-01T10:43:55.641Z,1021.94
2019-04-01T10:44:57.054Z,1022.10
2019-04-01T10:45:58.471Z,1022.27
2019-04-01T10:46:59.928Z,1022.34
2019-04-01T10:48:01.320Z,1022.48
2019-04-01T10:49:02.696Z,1022.44
2019-04-01T10:50:04.759Z,1022.50
2019-04-01T10:51:06.054Z,1022.50
2019-04-01T10:52:07.480Z,1022.46
2019-04-01T10:53:08.907Z,1022.39
2019-04-01T10:54:10.336Z,1022.34
2019-04-01T10:55:11.753Z,1022.27
2019-04-01T10:56:13.175Z,1022.26
2019-04-01T10:57:14.555Z,1022.16
2019-04-01T10:58:15.927Z,1022.16
2019-04-01T10:59:17.258Z,1022.16
2019-04-01T11:00:18.598Z,1022.09
2019-04-01T11:01:20.049Z,1022.10
2019-04-01T11:02:21.436Z,1022.02
2019-04-01T11:03:22.820Z,1021.96
2019-04-01T11:04:24.802Z,1021.93
2019-04-01T11:05:26.172Z,1021.81
2019-04-01T11:06:27.642Z,1021.77
2019-04-01T11:07:29.071Z,1021.76
2019-04-01T11:08:30.425Z,1021.77
2019-04-01T11:09:38.242Z,1021.76
2019-04-01T11:10:33.207Z,1021.84
2019-04-01T11:11:34.621Z,1021.80
2019-04-01T11:12:36.031Z,1021.85
2019-04-01T11:13:37.437Z,1021.89
2019-04-01T11:14:38.855Z,1021.87
2019-04-01T11:15:40.267Z,1021.89
2019-04-01T11:16:41.670Z,1021.87
2019-04-01T11:17:43.913Z,1021.85
2019-04-01T11:18:44.466Z,1021.82
2019-04-01T11:19:45.891Z,1021.85
2019-04-01T11:20:47.313Z,1021.80
2019-04-01T11:21:48.728Z,1021.79
2019-04-01T11:22:50.149Z,1021.82
2019-04-01T11:23:51.544Z,1021.76
2019-04-01T11:24:52.978Z,1021.72
2019-04-01T11:25:54.390Z,1021.74
2019-04-01T11:26:55.800Z,1021.72
2019-04-01T11:27:57.206Z,1021.66
2019-04-01T11:28:58.620Z,1021.66
2019-04-01T11:30:00.027Z,1021.69
2019-04-01T11:31:01.454Z,1021.64
2019-04-01T11:32:02.839Z,1021.62
2019-04-01T11:33:07.318Z,1021.61
2019-04-01T11:34:05.632Z,1021.59
2019-04-01T11:35:07.087Z,1021.53
2019-04-01T11:36:08.536Z,1021.58
2019-04-01T11:37:09.912Z,1021.55
2019-04-01T11:38:11.337Z,1021.49
2019-04-01T11:39:12.767Z,1021.35
2019-04-01T11:40:14.170Z,1021.41
2019-04-01T11:41:15.637Z,1021.33
2019-04-01T11:42:16.923Z,1021.31
2019-04-01T11:43:18.342Z,1021.26
2019-04-01T11:44:19.764Z,1021.30
2019-04-01T11:45:22.482Z,1021.30
2019-04-01T11:46:23.224Z,1021.24
2019-04-01T11:47:23.954Z,1021.26
2019-04-01T11:48:25.323Z,1021.24
2019-04-01T11:49:26.778Z,1021.25
2019-04-01T11:50:28.228Z,1021.22
2019-04-01T11:51:32.963Z,1021.25
2019-04-01T11:52:30.966Z,1021.13
2019-04-01T11:53:32.370Z,1021.15
2019-04-01T11:54:33.776Z,1021.11
2019-04-01T11:55:35.181Z,1021.11
2019-04-01T11:56:36.590Z,1021.08
2019-04-01T11:57:38.011Z,1021.12
2019-04-01T11:58:39.414Z,1021.02
2019-04-01T11:59:40.829Z,1020.99
2019-04-01T12:00:42.228Z,1020.98
2019-04-01T12:01:43.639Z,1021.03
2019-04-01T12:02:46.149Z,1021.02
2019-04-01T12:03:46.405Z,1020.95
2019-04-01T12:04:47.802Z,1020.99
2019-04-01T12:05:49.222Z,1020.95
2019-04-01T12:06:50.618Z,1020.92
2019-04-01T12:07:52.008Z,1020.90
2019-04-01T12:08:53.412Z,1020.94
2019-04-01T12:09:55.296Z,1020.89
2019-04-01T12:10:56.179Z,1020.93
2019-04-01T12:11:57.589Z,1020.91
2019-04-01T12:12:59.970Z,1020.99
2019-04-01T12:14:00.365Z,1020.90
2019-04-01T12:15:01.782Z,1020.88
2019-04-01T12:16:03.169Z,1020.84
2019-04-01T12:17:04.571Z,1020.84
2019-04-01T12:18:05.975Z,1020.84
2019-04-01T12:19:07.383Z,1020.79
2019-04-01T12:20:09.543Z,1020.73
2019-04-01T12:21:10.146Z,1020.73
2019-04-01T12:22:11.606Z,1020.76